Time;durP1;ratioP1;P1;durP2;ratioP2;P2;SDS_P1;SDS_P2;PMS_P1;PMS_P2;Temp;Humidity;BMP_temperature;BMP_pressure;BME280_temperature;BME280_humidity;BME280_pressure;Samples;Min_cycle;Max_cycle;Signal;HPM_P1;HPM_P2
2023/07/01 00:01:49;;;;;;;1.98;1.20;;;;;;;;;;5037018;28;20456;-64
2023/07/01 00:04:15;;;;;;;2.20;1.40;;;;;;;;;;5033644;28;20051;-64
2023/07/01 00:06:41;;;;;;;1.52;1.27;;;;;;;;;;5032579;28;20041;-64
2023/07/01 00:09:09;;;;;;;3.95;1.92;;;;;;;;;;5036236;28;20045;-64
2023/07/01 00:11:35;;;;;;;3.92;1.58;;;;;;;;;;5037052;28;20056;-64
2023/07/01 00:14:01;;;;;;;2.60;1.58;;;;;;;;;;5028859;28;20064;-64
2023/07/01 00:16:27;;;;;;;2.70;1.55;;;;;;;;;;5033759;28;20550;-64
2023/07/01 00:18:53;;;;;;;1.92;1.30;;;;;;;;;;5035882;28;20045;-64
2023/07/01 00:21:19;;;;;;;2.88;1.35;;;;;;;;;;5032663;28;20497;-64
2023/07/01 00:23:45;;;;;;;1.83;1.00;;;;;;;;;;5036389;28;20052;-64
2023/07/01 00:26:11;;;;;;;1.17;1.00;;;;;;;;;;5035549;28;20539;-64
2023/07/01 00:28:38;;;;;;;2.08;1.23;;;;;;;;;;5034887;28;20056;-64
2023/07/01 00:31:04;;;;;;;2.65;1.10;;;;;;;;;;5034297;28;20167;-64
2023/07/01 00:33:30;;;;;;;2.58;1.38;;;;;;;;;;5033037;28;20040;-64
2023/07/01 00:35:56;;;;;;;4.00;1.52;;;;;;;;;;5040245;28;20139;-64
2023/07/01 00:38:22;;;;;;;2.63;1.50;;;;;;;;;;5030937;28;20037;-64
2023/07/01 00:40:48;;;;;;;2.30;1.25;;;;;;;;;;5037419;28;20094;-64
2023/07/01 00:43:14;;;;;;;1.15;0.88;;;;;;;;;;5036164;28;20044;-64
2023/07/01 00:45:40;;;;;;;3.15;1.00;;;;;;;;;;5035022;28;20178;-64
2023/07/01 00:48:06;;;;;;;2.13;1.35;;;;;;;;;;5035502;28;20565;-64
2023/07/01 00:50:32;;;;;;;2.88;1.83;;;;;;;;;;5032482;28;20508;-64
2023/07/01 00:52:59;;;;;;;3.42;1.90;;;;;;;;;;5035051;28;20038;-64
2023/07/01 00:55:25;;;;;;;2.72;1.60;;;;;;;;;;5037987;28;20049;-64
2023/07/01 00:57:51;;;;;;;2.47;1.42;;;;;;;;;;5037603;28;20048;-64
2023/07/01 01:00:18;;;;;;;3.33;2.05;;;;;;;;;;5032983;28;20389;-64
2023/07/01 01:02:56;;;;;;;3.38;1.40;;;;;;;;;;5035844;28;20053;-64
2023/07/01 01:05:31;;;;;;;2.22;1.65;;;;;;;;;;5033550;28;20056;-64
2023/07/01 01:08:07;;;;;;;3.03;1.50;;;;;;;;;;5032955;28;20048;-64
2023/07/01 01:10:34;;;;;;;1.55;1.20;;;;;;;;;;5036379;28;20159;-64
2023/07/01 01:13:01;;;;;;;3.22;1.60;;;;;;;;;;5036656;28;20037;-64
2023/07/01 01:15:27;;;;;;;1.38;1.27;;;;;;;;;;5038880;28;20049;-64
2023/07/01 01:17:56;;;;;;;1.52;1.10;;;;;;;;;;5031699;28;20044;-64
2023/07/01 01:20:22;;;;;;;5.57;1.60;;;;;;;;;;5031180;28;20072;-64
2023/07/01 01:22:54;;;;;;;2.42;1.15;;;;;;;;;;5030526;28;20056;-64
2023/07/01 01:25:28;;;;;;;3.58;1.67;;;;;;;;;;5028881;28;20079;-64
2023/07/01 01:27:55;;;;;;;3.90;1.90;;;;;;;;;;5036046;28;20685;-64
2023/07/01 01:30:25;;;;;;;4.57;1.90;;;;;;;;;;5036188;28;20038;-64
2023/07/01 01:32:51;;;;;;;2.80;1.30;;;;;;;;;;5032376;28;20041;-64
2023/07/01 01:35:17;;;;;;;3.47;1.77;;;;;;;;;;5036398;28;20037;-64
2023/07/01 01:37:48;;;;;;;4.78;1.95;;;;;;;;;;5037442;28;20059;-64
2023/07/01 01:40:15;;;;;;;3.08;1.95;;;;;;;;;;5032642;28;20386;-64
2023/07/01 01:42:44;;;;;;;4.32;1.42;;;;;;;;;;5029687;28;20045;-64
2023/07/01 01:45:11;;;;;;;1.52;1.00;;;;;;;;;;5032178;28;20106;-64
2023/07/01 01:47:37;;;;;;;2.83;1.55;;;;;;;;;;5036529;28;20033;-64
2023/07/01 01:50:07;;;;;;;2.80;1.20;;;;;;;;;;5038304;28;20037;-63
2023/07/01 01:52:34;;;;;;;4.03;1.80;;;;;;;;;;5036649;28;20413;-64
2023/07/01 01:55:01;;;;;;;2.45;1.60;;;;;;;;;;5033710;28;20077;-64
2023/07/01 01:57:27;;;;;;;2.53;1.50;;;;;;;;;;5031782;28;20045;-64
2023/07/01 01:59:54;;;;;;;2.83;1.70;;;;;;;;;;5026511;28;20965;-64
2023/07/01 02:02:20;;;;;;;1.48;1.27;;;;;;;;;;5035997;28;20065;-63
2023/07/01 02:04:46;;;;;;;3.60;1.35;;;;;;;;;;5031744;28;20049;-63
2023/07/01 02:07:12;;;;;;;2.53;1.30;;;;;;;;;;5033811;28;20394;-63
2023/07/01 02:09:38;;;;;;;2.03;1.48;;;;;;;;;;5036388;28;20082;-63
2023/07/01 02:12:04;;;;;;;2.78;1.48;;;;;;;;;;5038325;28;20498;-63
2023/07/01 02:14:31;;;;;;;0.80;0.80;;;;;;;;;;5034187;28;20390;-63
2023/07/01 02:16:57;;;;;;;2.22;1.35;;;;;;;;;;5030874;28;20187;-63
2023/07/01 02:19:23;;;;;;;3.35;1.70;;;;;;;;;;5036771;28;20041;-63
2023/07/01 02:21:49;;;;;;;2.00;1.48;;;;;;;;;;5037708;28;20037;-63
2023/07/01 02:24:15;;;;;;;2.35;1.50;;;;;;;;;;5035411;28;20246;-63
2023/07/01 02:26:41;;;;;;;3.78;1.73;;;;;;;;;;5036195;28;20049;-63
2023/07/01 02:29:08;;;;;;;1.98;1.40;;;;;;;;;;5034740;28;20037;-63
2023/07/01 02:31:34;;;;;;;2.80;1.58;;;;;;;;;;5032506;28;20525;-63
2023/07/01 02:34:01;;;;;;;2.53;1.92;;;;;;;;;;5037226;28;20068;-63
2023/07/01 02:36:27;;;;;;;4.35;1.75;;;;;;;;;;5031773;28;20136;-63
2023/07/01 02:38:53;;;;;;;3.63;2.17;;;;;;;;;;5032283;28;20048;-64
2023/07/01 02:41:19;;;;;;;1.90;1.45;;;;;;;;;;5036150;28;20540;-64
2023/07/01 02:43:45;;;;;;;2.42;1.95;;;;;;;;;;5033347;28;20045;-64
2023/07/01 02:46:11;;;;;;;3.58;2.20;;;;;;;;;;5028751;28;20044;-63
2023/07/01 02:48:37;;;;;;;6.50;1.98;;;;;;;;;;5035272;28;20037;-63
2023/07/01 02:51:04;;;;;;;4.68;2.08;;;;;;;;;;5035195;28;20045;-63
2023/07/01 02:53:30;;;;;;;2.85;1.80;;;;;;;;;;5031218;28;20500;-63
2023/07/01 02:55:58;;;;;;;3.72;2.10;;;;;;;;;;5035446;28;20570;-63
2023/07/01 02:58:24;;;;;;;5.22;2.35;;;;;;;;;;5032834;28;20049;-63
2023/07/01 03:00:50;;;;;;;3.80;2.00;;;;;;;;;;5032260;28;20056;-63
2023/07/01 03:03:16;;;;;;;6.53;2.30;;;;;;;;;;5033369;28;20037;-63
2023/07/01 03:05:42;;;;;;;3.22;2.13;;;;;;;;;;5035423;28;20041;-63
2023/07/01 03:08:08;;;;;;;7.25;2.35;;;;;;;;;;5032000;28;20409;-63
2023/07/01 03:10:34;;;;;;;3.13;2.80;;;;;;;;;;5033860;28;20041;-63
2023/07/01 03:13:01;;;;;;;2.70;2.30;;;;;;;;;;5035263;28;20037;-63
2023/07/01 03:15:27;;;;;;;3.15;2.13;;;;;;;;;;5031042;28;20507;-63
2023/07/01 03:17:53;;;;;;;2.42;2.22;;;;;;;;;;5033138;28;20048;-63
2023/07/01 03:20:22;;;;;;;3.85;2.28;;;;;;;;;;5028468;28;20069;-63
2023/07/01 03:22:59;;;;;;;3.42;2.53;;;;;;;;;;5030584;28;20080;-63
2023/07/01 03:25:25;;;;;;;3.65;2.30;;;;;;;;;;5031639;28;20037;-63
2023/07/01 03:27:51;;;;;;;2.58;1.52;;;;;;;;;;5034504;28;20041;-63
2023/07/01 03:30:18;;;;;;;5.82;1.70;;;;;;;;;;5030923;28;20037;-63
2023/07/01 03:32:45;;;;;;;2.55;1.92;;;;;;;;;;5032583;28;20049;-63
2023/07/01 03:35:12;;;;;;;3.60;2.30;;;;;;;;;;5029500;28;20029;-63
2023/07/01 03:37:41;;;;;;;4.43;3.28;;;;;;;;;;5030272;28;20093;-63
2023/07/01 03:40:10;;;;;;;4.45;3.22;;;;;;;;;;5035409;28;20036;-63
2023/07/01 03:42:37;;;;;;;3.10;2.50;;;;;;;;;;5031540;28;20045;-63
2023/07/01 03:45:05;;;;;;;4.38;3.65;;;;;;;;;;5033518;28;20178;-63
2023/07/01 03:47:31;;;;;;;4.32;2.72;;;;;;;;;;5030612;28;20185;-63
2023/07/01 03:49:57;;;;;;;4.68;2.80;;;;;;;;;;5033343;28;20546;-63
2023/07/01 03:52:23;;;;;;;3.45;3.15;;;;;;;;;;5037827;28;20089;-63
2023/07/01 03:54:49;;;;;;;2.92;2.72;;;;;;;;;;5036533;28;20072;-63
2023/07/01 03:57:15;;;;;;;3.42;3.00;;;;;;;;;;5035190;28;20203;-63
2023/07/01 03:59:42;;;;;;;3.20;2.90;;;;;;;;;;5036784;28;20095;-63
2023/07/01 04:02:08;;;;;;;3.42;3.13;;;;;;;;;;5032991;28;20051;-63
2023/07/01 04:04:34;;;;;;;4.22;3.08;;;;;;;;;;5039269;28;20405;-63
2023/07/01 04:07:00;;;;;;;4.57;2.83;;;;;;;;;;5040000;28;20037;-63
2023/07/01 04:09:26;;;;;;;4.50;3.17;;;;;;;;;;5034188;28;20147;-63
2023/07/01 04:11:52;;;;;;;5.30;3.65;;;;;;;;;;5033193;28;20089;-63
2023/07/01 04:14:18;;;;;;;2.13;2.00;;;;;;;;;;5031418;28;20087;-63
2023/07/01 04:16:44;;;;;;;5.97;3.63;;;;;;;;;;5036731;28;20462;-63
2023/07/01 04:19:11;;;;;;;3.35;3.00;;;;;;;;;;5039649;28;20128;-63
2023/07/01 04:21:37;;;;;;;3.70;3.03;;;;;;;;;;5031817;28;20137;-63
2023/07/01 04:24:05;;;;;;;3.15;2.75;;;;;;;;;;5033031;28;20124;-63
2023/07/01 04:26:31;;;;;;;5.10;2.90;;;;;;;;;;5038508;28;20041;-63
2023/07/01 04:28:57;;;;;;;4.07;3.17;;;;;;;;;;5037895;28;20115;-63
2023/07/01 04:31:24;;;;;;;3.25;2.95;;;;;;;;;;5034739;28;20068;-64
2023/07/01 04:33:50;;;;;;;7.00;3.72;;;;;;;;;;5035619;28;20041;-64
2023/07/01 04:36:16;;;;;;;3.00;2.58;;;;;;;;;;5031546;28;20501;-64
2023/07/01 04:38:42;;;;;;;4.55;3.40;;;;;;;;;;5039190;28;20124;-63
2023/07/01 04:41:08;;;;;;;3.83;3.00;;;;;;;;;;5035524;28;20041;-63
2023/07/01 04:43:35;;;;;;;3.10;2.78;;;;;;;;;;5037739;28;20037;-63
2023/07/01 04:46:01;;;;;;;2.90;2.42;;;;;;;;;;5037206;28;20086;-63
2023/07/01 04:48:27;;;;;;;4.43;2.63;;;;;;;;;;5039012;28;20424;-63
2023/07/01 04:50:53;;;;;;;4.30;3.33;;;;;;;;;;5030422;28;20049;-63
2023/07/01 04:53:19;;;;;;;5.00;2.92;;;;;;;;;;5034994;28;20103;-63
2023/07/01 04:55:45;;;;;;;5.13;3.35;;;;;;;;;;5032796;28;20425;-63
2023/07/01 04:58:12;;;;;;;2.92;2.70;;;;;;;;;;5036153;28;20064;-63
2023/07/01 05:00:38;;;;;;;3.17;2.83;;;;;;;;;;5033785;28;20449;-63
2023/07/01 05:03:04;;;;;;;4.38;3.97;;;;;;;;;;5035562;28;20030;-63
2023/07/01 05:05:30;;;;;;;4.82;3.20;;;;;;;;;;5032702;28;20116;-63
2023/07/01 05:07:56;;;;;;;3.67;3.15;;;;;;;;;;5031644;28;20041;-63
2023/07/01 05:10:25;;;;;;;2.65;2.45;;;;;;;;;;5030294;28;20052;-63
2023/07/01 05:12:51;;;;;;;3.63;3.33;;;;;;;;;;5031681;28;20076;-63
2023/07/01 05:15:17;;;;;;;5.18;4.07;;;;;;;;;;5037106;28;20047;-63
2023/07/01 05:17:44;;;;;;;3.92;2.92;;;;;;;;;;5033814;28;20087;-63
2023/07/01 05:20:10;;;;;;;2.67;2.47;;;;;;;;;;5034953;28;20460;-63
2023/07/01 05:22:36;;;;;;;3.42;3.13;;;;;;;;;;5037182;28;20047;-63
2023/07/01 05:25:03;;;;;;;2.78;2.30;;;;;;;;;;5034507;28;20497;-63
2023/07/01 05:27:29;;;;;;;3.55;2.42;;;;;;;;;;5035614;28;20045;-63
2023/07/01 05:29:56;;;;;;;5.85;3.40;;;;;;;;;;5029350;28;20048;-63
2023/07/01 05:32:22;;;;;;;3.55;3.25;;;;;;;;;;5034730;28;20551;-63
2023/07/01 05:34:48;;;;;;;3.22;3.00;;;;;;;;;;5033962;28;20040;-63
2023/07/01 05:37:14;;;;;;;2.40;2.20;;;;;;;;;;5036137;28;20128;-63
2023/07/01 05:39:40;;;;;;;2.30;2.20;;;;;;;;;;5032618;28;20079;-63
2023/07/01 05:42:06;;;;;;;3.35;3.00;;;;;;;;;;5032724;28;20045;-63
2023/07/01 05:44:32;;;;;;;3.10;2.80;;;;;;;;;;5032386;28;20037;-63
2023/07/01 05:46:58;;;;;;;3.67;3.38;;;;;;;;;;5031281;28;20493;-64
2023/07/01 05:49:24;;;;;;;3.40;3.10;;;;;;;;;;5032446;28;20037;-63
2023/07/01 05:51:51;;;;;;;3.33;2.90;;;;;;;;;;5037271;28;20452;-63
2023/07/01 05:54:17;;;;;;;4.97;4.38;;;;;;;;;;5032527;28;20041;-63
2023/07/01 05:56:43;;;;;;;4.65;3.13;;;;;;;;;;5030328;28;20081;-63
2023/07/01 05:59:09;;;;;;;3.22;2.90;;;;;;;;;;5036252;28;20116;-63
2023/07/01 06:01:35;;;;;;;2.60;2.40;;;;;;;;;;5034467;28;20072;-63
2023/07/01 06:04:01;;;;;;;4.00;3.60;;;;;;;;;;5035421;28;20048;-63
2023/07/01 06:06:28;;;;;;;2.63;2.42;;;;;;;;;;5035986;28;20048;-63
2023/07/01 06:08:54;;;;;;;5.22;3.80;;;;;;;;;;5034846;28;20041;-63
2023/07/01 06:11:20;;;;;;;4.57;3.40;;;;;;;;;;5034237;28;20085;-64
2023/07/01 06:13:47;;;;;;;3.22;3.03;;;;;;;;;;5036813;28;20507;-64
2023/07/01 06:16:13;;;;;;;4.18;3.38;;;;;;;;;;5033151;28;20087;-63
2023/07/01 06:18:39;;;;;;;4.47;3.97;;;;;;;;;;5028614;28;20045;-63
2023/07/01 06:21:06;;;;;;;3.92;3.58;;;;;;;;;;5034664;28;20083;-63
2023/07/01 06:23:36;;;;;;;3.92;3.53;;;;;;;;;;5034372;28;20052;-63
2023/07/01 06:26:02;;;;;;;2.80;2.60;;;;;;;;;;5031793;28;20925;-63
2023/07/01 06:28:28;;;;;;;4.00;3.70;;;;;;;;;;5032718;28;20047;-63
2023/07/01 06:30:54;;;;;;;3.28;2.80;;;;;;;;;;5030144;28;20135;-63
2023/07/01 06:33:20;;;;;;;2.40;2.30;;;;;;;;;;5036164;28;20072;-63
2023/07/01 06:35:46;;;;;;;3.80;3.40;;;;;;;;;;5035315;28;20497;-63
2023/07/01 06:38:12;;;;;;;3.90;3.60;;;;;;;;;;5033656;28;20041;-63
2023/07/01 06:40:38;;;;;;;3.92;3.63;;;;;;;;;;5030436;28;20195;-63
2023/07/01 06:43:04;;;;;;;3.45;3.25;;;;;;;;;;5032881;28;20482;-63
2023/07/01 06:45:31;;;;;;;3.60;3.30;;;;;;;;;;5032803;28;20111;-63
2023/07/01 06:47:58;;;;;;;2.90;2.25;;;;;;;;;;5028351;28;20393;-63
2023/07/01 06:50:24;;;;;;;2.55;2.35;;;;;;;;;;5037496;28;20041;-63
2023/07/01 06:52:50;;;;;;;3.50;3.20;;;;;;;;;;5032115;28;20045;-63
2023/07/01 06:55:16;;;;;;;3.90;3.60;;;;;;;;;;5034247;28;20045;-63
2023/07/01 06:57:42;;;;;;;3.78;3.03;;;;;;;;;;5031300;28;20046;-63
2023/07/01 07:00:09;;;;;;;2.20;2.10;;;;;;;;;;5033023;28;20037;-62
2023/07/01 07:02:35;;;;;;;2.60;2.38;;;;;;;;;;5031938;28;20049;-63
2023/07/01 07:05:03;;;;;;;2.53;2.33;;;;;;;;;;5026584;28;20060;-63
2023/07/01 07:07:29;;;;;;;2.47;2.28;;;;;;;;;;5031707;28;20445;-63
2023/07/01 07:09:55;;;;;;;1.98;1.88;;;;;;;;;;5033254;28;20036;-63
2023/07/01 07:12:21;;;;;;;2.42;1.98;;;;;;;;;;5032942;28;20038;-63
2023/07/01 07:14:47;;;;;;;1.90;1.80;;;;;;;;;;5031890;28;20393;-63
2023/07/01 07:17:13;;;;;;;2.63;2.13;;;;;;;;;;5035535;28;20037;-63
2023/07/01 07:19:39;;;;;;;1.80;1.70;;;;;;;;;;5031203;28;20088;-63
2023/07/01 07:22:06;;;;;;;2.47;2.28;;;;;;;;;;5037875;28;20091;-63
2023/07/01 07:24:32;;;;;;;2.28;1.75;;;;;;;;;;5035446;28;20117;-63
2023/07/01 07:27:00;;;;;;;1.38;1.25;;;;;;;;;;5037849;28;20041;-63
2023/07/01 07:29:26;;;;;;;1.23;1.10;;;;;;;;;;5033187;28;20118;-63
2023/07/01 07:31:52;;;;;;;2.35;2.17;;;;;;;;;;5036240;28;20037;-63
2023/07/01 07:34:18;;;;;;;1.50;1.40;;;;;;;;;;5034958;28;20496;-63
2023/07/01 07:36:44;;;;;;;1.63;1.52;;;;;;;;;;5041055;28;20045;-63
2023/07/01 07:39:14;;;;;;;1.63;1.52;;;;;;;;;;5036680;28;20041;-63
2023/07/01 07:41:40;;;;;;;1.63;1.52;;;;;;;;;;5034314;28;20045;-63
2023/07/01 07:44:06;;;;;;;1.20;1.15;;;;;;;;;;5033758;28;20545;-63
2023/07/01 07:46:33;;;;;;;1.90;1.80;;;;;;;;;;5035518;28;20041;-63
2023/07/01 07:48:59;;;;;;;1.55;1.10;;;;;;;;;;5036506;28;20098;-63
2023/07/01 07:51:25;;;;;;;1.63;1.52;;;;;;;;;;5033159;28;20048;-63
2023/07/01 07:53:51;;;;;;;1.45;1.35;;;;;;;;;;5039250;28;20042;-63
2023/07/01 07:56:17;;;;;;;1.10;1.10;;;;;;;;;;5035883;28;20025;-63
2023/07/01 07:58:43;;;;;;;1.50;1.40;;;;;;;;;;5040722;28;20822;-63
2023/07/01 08:01:09;;;;;;;1.00;1.00;;;;;;;;;;5038006;28;20037;-63
2023/07/01 08:03:35;;;;;;;1.40;1.30;;;;;;;;;;5037545;28;20057;-63
2023/07/01 08:06:01;;;;;;;3.63;1.50;;;;;;;;;;5035972;28;20047;-65
2023/07/01 08:08:27;;;;;;;2.45;1.58;;;;;;;;;;5038854;28;20557;-61
2023/07/01 08:10:53;;;;;;;1.20;1.20;;;;;;;;;;5036746;28;20120;-59
2023/07/01 08:13:19;;;;;;;0.60;0.60;;;;;;;;;;5030384;28;20045;-60
2023/07/01 08:15:45;;;;;;;0.75;0.75;;;;;;;;;;5042690;28;20045;-60
2023/07/01 08:18:12;;;;;;;0.82;0.82;;;;;;;;;;5028620;28;20404;-67
2023/07/01 08:20:38;;;;;;;2.20;1.30;;;;;;;;;;5040834;28;20044;-63
2023/07/01 08:23:04;;;;;;;0.68;0.68;;;;;;;;;;5042051;28;20502;-63
2023/07/01 08:25:30;;;;;;;0.95;0.95;;;;;;;;;;5029593;28;20509;-64
2023/07/01 08:27:58;;;;;;;0.90;0.90;;;;;;;;;;5034398;28;20045;-64
2023/07/01 08:30:24;;;;;;;0.70;0.70;;;;;;;;;;5032944;28;20403;-64
2023/07/01 08:32:50;;;;;;;1.20;0.90;;;;;;;;;;5046708;28;20084;-64
2023/07/01 08:35:16;;;;;;;1.02;0.60;;;;;;;;;;5045890;28;20481;-64
2023/07/01 08:37:43;;;;;;;0.90;0.90;;;;;;;;;;5040738;28;20375;-64
2023/07/01 08:40:10;;;;;;;0.77;0.77;;;;;;;;;;5041154;28;20079;-64
2023/07/01 08:42:50;;;;;;;0.38;0.38;;;;;;;;;;5043861;28;20405;-64
2023/07/01 08:45:17;;;;;;;1.38;1.27;;;;;;;;;;5031213;28;20037;-64
2023/07/01 08:47:43;;;;;;;0.73;0.70;;;;;;;;;;5037378;28;20041;-64
2023/07/01 08:50:09;;;;;;;0.60;0.60;;;;;;;;;;5033605;28;20037;-64
2023/07/01 08:52:51;;;;;;;0.70;0.70;;;;;;;;;;5035333;28;20076;-64
2023/07/01 08:55:17;;;;;;;0.60;0.60;;;;;;;;;;5029203;28;20039;-64
2023/07/01 08:57:43;;;;;;;0.90;0.90;;;;;;;;;;5032911;28;20236;-64
2023/07/01 09:00:12;;;;;;;0.60;0.60;;;;;;;;;;5035875;28;20045;-65
2023/07/01 09:02:38;;;;;;;1.15;1.15;;;;;;;;;;5043802;28;20485;-64
2023/07/01 09:05:04;;;;;;;0.90;0.90;;;;;;;;;;5031852;28;20052;-64
2023/07/01 09:07:30;;;;;;;0.50;0.50;;;;;;;;;;5038542;28;20497;-64
2023/07/01 09:09:57;;;;;;;0.60;0.60;;;;;;;;;;5038832;28;20099;-64
2023/07/01 09:12:29;;;;;;;0.60;0.60;;;;;;;;;;5033799;28;20046;-64
2023/07/01 09:14:55;;;;;;;;;;;;;;;;;;5046442;28;20041;-64
2023/07/01 09:17:31;;;;;;;0.40;0.40;;;;;;;;;;5042824;28;20369;-64
2023/07/01 09:20:02;;;;;;;0.60;0.50;;;;;;;;;;5045424;28;20041;-64
2023/07/01 09:22:29;;;;;;;0.60;0.60;;;;;;;;;;5045586;28;20594;-64
2023/07/01 09:24:55;;;;;;;0.30;0.30;;;;;;;;;;5041804;28;20103;-65
2023/07/01 09:27:21;;;;;;;0.40;0.40;;;;;;;;;;5030892;28;20106;-65
2023/07/01 09:29:47;;;;;;;0.10;0.10;;;;;;;;;;5038207;28;20079;-65
2023/07/01 09:32:29;;;;;;;0.40;0.40;;;;;;;;;;5029140;28;20045;-65
2023/07/01 09:34:57;;;;;;;0.20;0.20;;;;;;;;;;5032902;28;20494;-65
2023/07/01 09:37:23;;;;;;;0.40;0.40;;;;;;;;;;5043466;28;20056;-65
2023/07/01 09:39:50;;;;;;;0.30;0.22;;;;;;;;;;5043385;28;20072;-64
2023/07/01 09:42:18;;;;;;;0.35;0.30;;;;;;;;;;5045197;28;20049;-65
2023/07/01 09:45:20;;;;;;;1.10;0.20;;;;;;;;;;5046683;28;20037;-65
2023/07/01 09:47:51;;;;;;;0.20;0.20;;;;;;;;;;5003085;28;20052;-65
2023/07/01 09:50:24;;;;;;;0.40;0.40;;;;;;;;;;5030433;28;20572;-65
2023/07/01 09:52:53;;;;;;;0.73;0.30;;;;;;;;;;5036101;28;20041;-65
2023/07/01 09:55:19;;;;;;;0.40;0.40;;;;;;;;;;5037533;28;20045;-65
2023/07/01 09:57:45;;;;;;;0.60;0.60;;;;;;;;;;5033998;28;20099;-65
2023/07/01 10:00:15;;;;;;;1.63;0.65;;;;;;;;;;5036965;28;20059;-65
2023/07/01 10:02:42;;;;;;;1.38;0.77;;;;;;;;;;5033596;28;20060;-65
2023/07/01 10:05:08;;;;;;;0.82;0.55;;;;;;;;;;5040349;28;20118;-65
2023/07/01 10:07:34;;;;;;;0.82;0.75;;;;;;;;;;5038592;28;20043;-65
2023/07/01 10:10:00;;;;;;;1.10;1.10;;;;;;;;;;5038676;28;20052;-65
2023/07/01 10:12:27;;;;;;;0.90;0.90;;;;;;;;;;5042067;28;20077;-65
2023/07/01 10:14:55;;;;;;;0.70;0.70;;;;;;;;;;5039046;28;20140;-65
2023/07/01 10:17:21;;;;;;;0.80;0.80;;;;;;;;;;5031038;28;20056;-65
2023/07/01 10:19:47;;;;;;;0.85;0.85;;;;;;;;;;5036599;28;20052;-66
2023/07/01 10:22:30;;;;;;;1.13;1.13;;;;;;;;;;5034030;28;20032;-60
2023/07/01 10:24:58;;;;;;;1.30;1.20;;;;;;;;;;5038036;28;20049;-65
2023/07/01 10:27:42;;;;;;;1.98;1.88;;;;;;;;;;5037265;28;20041;-65
2023/07/01 10:30:09;;;;;;;2.85;2.03;;;;;;;;;;5032998;28;20045;-64
2023/07/01 10:32:35;;;;;;;1.60;1.50;;;;;;;;;;5029045;28;20041;-64
2023/07/01 10:35:04;;;;;;;1.60;1.50;;;;;;;;;;5029174;28;20103;-64
2023/07/01 10:37:31;;;;;;;0.90;0.90;;;;;;;;;;5023076;28;20457;-64
2023/07/01 10:39:58;;;;;;;1.58;1.48;;;;;;;;;;5023711;28;20141;-64
2023/07/01 10:42:34;;;;;;;1.38;1.27;;;;;;;;;;5023362;28;20060;-64
2023/07/01 10:45:13;;;;;;;1.30;1.30;;;;;;;;;;5022027;28;20128;-64
2023/07/01 10:47:43;;;;;;;1.50;1.30;;;;;;;;;;5021471;28;20456;-64
2023/07/01 10:50:09;;;;;;;0.93;0.93;;;;;;;;;;5019446;28;20137;-64
2023/07/01 10:52:54;;;;;;;0.93;0.93;;;;;;;;;;5020389;28;20301;-64
2023/07/01 10:55:36;;;;;;;1.60;1.50;;;;;;;;;;5020100;28;20037;-64
2023/07/01 10:58:14;;;;;;;2.15;1.95;;;;;;;;;;5023588;28;20044;-64
2023/07/01 11:00:41;;;;;;;1.15;1.15;;;;;;;;;;5026716;28;20048;-64
2023/07/01 11:03:25;;;;;;;1.05;1.05;;;;;;;;;;5027181;28;20095;-64
2023/07/01 11:06:01;;;;;;;1.08;1.08;;;;;;;;;;5027844;28;20042;-64
2023/07/01 11:08:27;;;;;;;1.67;1.58;;;;;;;;;;5028439;28;20049;-64
2023/07/01 11:10:54;;;;;;;2.50;1.77;;;;;;;;;;5028549;28;20088;-64
2023/07/01 11:13:20;;;;;;;2.95;2.55;;;;;;;;;;5027838;28;20100;-64
2023/07/01 11:16:05;;;;;;;1.80;1.70;;;;;;;;;;5028691;28;20509;-64
2023/07/01 11:19:00;;;;;;;1.90;1.80;;;;;;;;;;5027771;28;20124;-64
2023/07/01 11:21:27;;;;;;;1.60;1.50;;;;;;;;;;5015306;28;20477;-64
2023/07/01 11:23:57;;;;;;;1.63;1.48;;;;;;;;;;5028556;28;20049;-64
2023/07/01 11:26:24;;;;;;;1.40;1.30;;;;;;;;;;5027565;28;20056;-64
2023/07/01 11:28:51;;;;;;;1.30;1.20;;;;;;;;;;5028326;28;20042;-64
2023/07/01 11:31:18;;;;;;;1.90;1.80;;;;;;;;;;5028204;28;20056;-64
2023/07/01 11:33:45;;;;;;;1.67;1.58;;;;;;;;;;5027916;28;20076;-64
2023/07/01 11:36:14;;;;;;;2.53;2.33;;;;;;;;;;5028073;28;20473;-64
2023/07/01 11:38:43;;;;;;;2.75;2.55;;;;;;;;;;5028850;28;20041;-64
2023/07/01 11:41:09;;;;;;;2.00;1.90;;;;;;;;;;5027116;28;20120;-64
2023/07/01 11:43:35;;;;;;;2.50;2.38;;;;;;;;;;5028282;28;20045;-64
2023/07/01 11:46:01;;;;;;;2.50;1.75;;;;;;;;;;5028068;28;20052;-64
2023/07/01 11:48:31;;;;;;;1.75;1.65;;;;;;;;;;5027162;28;20045;-64
2023/07/01 11:50:57;;;;;;;1.10;1.02;;;;;;;;;;5028064;28;20103;-64
2023/07/01 11:53:23;;;;;;;3.15;2.85;;;;;;;;;;5026929;28;20474;-64
2023/07/01 11:55:49;;;;;;;2.53;2.33;;;;;;;;;;5027659;28;20049;-64
2023/07/01 11:58:24;;;;;;;1.95;1.85;;;;;;;;;;5027768;28;20084;-64
2023/07/01 12:00:50;;;;;;;2.58;2.38;;;;;;;;;;5026922;28;20489;-64
2023/07/01 12:03:16;;;;;;;1.90;1.80;;;;;;;;;;5027288;28;20052;-64
2023/07/01 12:05:46;;;;;;;1.75;1.65;;;;;;;;;;5027917;28;20421;-64
2023/07/01 12:08:12;;;;;;;1.20;1.20;;;;;;;;;;5025718;28;20045;-64
2023/07/01 12:10:38;;;;;;;1.45;1.35;;;;;;;;;;5027613;28;20053;-64
2023/07/01 12:13:05;;;;;;;1.45;1.30;;;;;;;;;;5027748;28;20068;-64
2023/07/01 12:15:32;;;;;;;2.03;1.90;;;;;;;;;;5026908;28;20041;-64
2023/07/01 12:18:30;;;;;;;1.98;1.88;;;;;;;;;;5027570;28;20290;-64
2023/07/01 12:20:57;;;;;;;1.58;1.48;;;;;;;;;;4993786;28;20132;-64
2023/07/01 12:23:23;;;;;;;1.27;1.17;;;;;;;;;;5026191;28;20489;-64
2023/07/01 12:25:49;;;;;;;1.45;1.35;;;;;;;;;;5027378;28;20405;-64
2023/07/01 12:28:16;;;;;;;1.75;1.65;;;;;;;;;;5026848;28;20045;-64
2023/07/01 12:30:43;;;;;;;1.38;1.27;;;;;;;;;;5027104;28;20087;-64
2023/07/01 12:33:09;;;;;;;1.70;1.42;;;;;;;;;;5026489;28;20537;-64
2023/07/01 12:35:35;;;;;;;1.20;1.20;;;;;;;;;;5026728;28;20107;-64
2023/07/01 12:38:03;;;;;;;2.40;1.48;;;;;;;;;;5027074;28;20045;-64
2023/07/01 12:40:29;;;;;;;0.93;0.90;;;;;;;;;;5026601;28;20045;-64
2023/07/01 12:42:55;;;;;;;0.70;0.70;;;;;;;;;;5026391;28;20128;-64
2023/07/01 12:45:21;;;;;;;1.10;1.10;;;;;;;;;;5025576;28;20537;-64
2023/07/01 12:47:47;;;;;;;1.45;1.33;;;;;;;;;;5026796;28;20057;-64
2023/07/01 12:50:13;;;;;;;1.48;1.25;;;;;;;;;;5026273;28;20117;-64
2023/07/01 12:52:40;;;;;;;1.02;0.93;;;;;;;;;;5026808;28;20045;-64
2023/07/01 12:55:10;;;;;;;2.08;1.33;;;;;;;;;;5026857;28;20136;-64
2023/07/01 12:57:36;;;;;;;1.35;1.25;;;;;;;;;;5026204;28;20045;-64
2023/07/01 13:00:06;;;;;;;1.45;1.35;;;;;;;;;;5026634;28;20441;-64
2023/07/01 13:02:35;;;;;;;1.48;1.40;;;;;;;;;;5026487;28;20497;-64
2023/07/01 13:05:02;;;;;;;1.05;1.00;;;;;;;;;;5025885;28;20057;-64
2023/07/01 13:07:28;;;;;;;1.27;1.17;;;;;;;;;;5026374;28;20041;-64
2023/07/01 13:09:55;;;;;;;1.52;0.98;;;;;;;;;;5026239;28;20088;-64
2023/07/01 13:12:24;;;;;;;0.95;0.77;;;;;;;;;;5025356;28;20053;-64
2023/07/01 13:14:51;;;;;;;0.88;0.82;;;;;;;;;;5026175;28;20052;-64
2023/07/01 13:17:17;;;;;;;1.17;0.80;;;;;;;;;;5026271;28;20056;-64
2023/07/01 13:19:44;;;;;;;0.90;0.90;;;;;;;;;;5025785;28;20060;-64
2023/07/01 13:22:12;;;;;;;1.30;0.88;;;;;;;;;;5026143;28;20091;-64
2023/07/01 13:24:39;;;;;;;0.80;0.80;;;;;;;;;;5026176;28;20045;-64
2023/07/01 13:27:07;;;;;;;1.05;0.75;;;;;;;;;;5026447;28;20111;-64
2023/07/01 13:29:37;;;;;;;2.70;0.95;;;;;;;;;;5026237;28;20056;-64
2023/07/01 13:32:04;;;;;;;1.15;1.05;;;;;;;;;;5025617;28;20053;-64
2023/07/01 13:34:32;;;;;;;1.10;0.85;;;;;;;;;;5025453;28;20509;-64
2023/07/01 13:36:58;;;;;;;1.67;1.15;;;;;;;;;;5025740;28;20523;-64
2023/07/01 13:39:39;;;;;;;1.50;0.88;;;;;;;;;;5024977;28;20087;-64
2023/07/01 13:42:05;;;;;;;0.65;0.65;;;;;;;;;;5026113;28;20099;-64
2023/07/01 13:44:35;;;;;;;1.13;0.85;;;;;;;;;;5025562;28;20072;-64
2023/07/01 13:47:01;;;;;;;0.55;0.55;;;;;;;;;;5024990;28;20041;-64
2023/07/01 13:49:30;;;;;;;0.88;0.70;;;;;;;;;;5025541;28;20323;-64
2023/07/01 13:51:56;;;;;;;0.80;0.63;;;;;;;;;;5025669;28;20475;-64
2023/07/01 13:54:23;;;;;;;0.70;0.68;;;;;;;;;;5025076;28;20077;-64
2023/07/01 13:56:51;;;;;;;1.85;1.02;;;;;;;;;;5025692;28;20473;-64
2023/07/01 13:59:17;;;;;;;1.33;0.90;;;;;;;;;;5025319;28;20417;-64
2023/07/01 14:01:50;;;;;;;0.90;0.90;;;;;;;;;;5025167;28;20041;-64
2023/07/01 14:04:16;;;;;;;1.30;1.00;;;;;;;;;;5025202;28;20095;-64
2023/07/01 14:06:42;;;;;;;1.27;1.13;;;;;;;;;;5025615;28;20049;-64
2023/07/01 14:09:20;;;;;;;1.85;1.30;;;;;;;;;;5024438;28;20045;-64
2023/07/01 14:11:46;;;;;;;0.82;0.82;;;;;;;;;;5025228;28;20189;-64
2023/07/01 14:14:19;;;;;;;0.95;0.80;;;;;;;;;;5024094;28;20651;-64
2023/07/01 14:16:45;;;;;;;0.70;0.70;;;;;;;;;;5025652;28;20055;-64
2023/07/01 14:19:14;;;;;;;1.48;1.00;;;;;;;;;;5025172;28;20412;-64
2023/07/01 14:21:40;;;;;;;2.20;1.23;;;;;;;;;;5024599;28;20048;-64
2023/07/01 14:24:10;;;;;;;0.85;0.85;;;;;;;;;;5025242;28;20429;-64
2023/07/01 14:26:41;;;;;;;1.60;1.10;;;;;;;;;;5025458;28;20076;-64
2023/07/01 14:29:07;;;;;;;0.95;0.93;;;;;;;;;;5024400;28;20046;-64
2023/07/01 14:31:34;;;;;;;1.50;1.40;;;;;;;;;;5024552;28;20567;-64
2023/07/01 14:34:01;;;;;;;0.80;0.80;;;;;;;;;;5024849;28;20045;-64
2023/07/01 14:36:31;;;;;;;1.33;1.25;;;;;;;;;;5024057;28;20041;-64
2023/07/01 14:38:58;;;;;;;1.35;1.25;;;;;;;;;;5025013;28;20041;-64
2023/07/01 14:41:32;;;;;;;1.60;1.38;;;;;;;;;;5024764;28;20046;-64
2023/07/01 14:44:02;;;;;;;1.20;1.10;;;;;;;;;;5024370;28;20045;-64
2023/07/01 14:46:29;;;;;;;1.10;1.00;;;;;;;;;;5024640;28;20436;-64